createdAt,value
2023-03-29T00:00:25.807Z,99844.28
2023-03-29T00:05:27.394Z,99854.00
2023-03-29T00:10:28.954Z,99841.31
2023-03-29T00:15:30.524Z,99840.94
2023-03-29T00:20:32.097Z,99820.91
2023-03-29T00:25:33.678Z,99827.56
2023-03-29T00:30:35.300Z,99872.81
2023-03-29T00:35:39.423Z,99832.84
2023-03-29T00:40:43.933Z,99831.59
2023-03-29T00:45:45.612Z,99839.81
2023-03-29T00:50:54.746Z,99842.94
2023-03-29T00:56:02.495Z,99857.91
2023-03-29T01:01:10.983Z,99787.16
2023-03-29T01:06:16.135Z,99837.97
2023-03-29T01:11:25.051Z,99825.19
2023-03-29T01:16:30.322Z,99808.31
2023-03-29T01:21:39.885Z,99763.75
2023-03-29T01:26:57.503Z,99821.38
2023-03-29T01:32:13.199Z,99804.91
2023-03-29T01:37:38.930Z,99775.03
2023-03-29T01:42:57.969Z,99776.22
2023-03-29T01:48:02.811Z,99804.09
2023-03-29T01:53:27.311Z,99800.09
2023-03-29T01:58:34.032Z,99790.56
2023-03-29T02:03:42.577Z,99797.66
2023-03-29T02:08:45.280Z,99777.38
2023-03-29T02:13:46.953Z,99807.78
2023-03-29T02:18:50.424Z,99810.88
2023-03-29T02:23:54.827Z,99756.75
2023-03-29T02:28:56.585Z,99773.59
2023-03-29T02:34:11.173Z,99775.34
2023-03-29T02:39:15.520Z,99788.66
2023-03-29T02:44:21.679Z,99783.06
2023-03-29T02:49:23.887Z,99778.03
2023-03-29T02:54:30.045Z,99789.75
2023-03-29T02:59:33.389Z,99788.75
2023-03-29T03:04:35.778Z,99787.38
2023-03-29T03:09:37.615Z,99747.81
2023-03-29T03:14:39.520Z,99769.69
2023-03-29T03:19:41.889Z,99781.88
2023-03-29T03:24:43.450Z,99775.16
2023-03-29T03:29:45.036Z,99774.63
2023-03-29T03:34:46.639Z,99793.66
2023-03-29T03:39:48.299Z,99775.00
2023-03-29T03:44:50.433Z,99765.88
2023-03-29T03:49:52.141Z,99807.19
2023-03-29T03:54:53.687Z,99781.94
2023-03-29T03:59:56.387Z,99793.72
2023-03-29T04:04:57.972Z,99782.53
2023-03-29T04:09:59.548Z,99817.53
2023-03-29T04:15:01.312Z,99784.84
2023-03-29T04:20:10.123Z,99799.09
2023-03-29T04:25:11.860Z,99834.13
2023-03-29T04:30:13.841Z,99854.34
2023-03-29T04:35:15.465Z,99845.75
2023-03-29T04:40:19.452Z,99826.34
2023-03-29T04:45:21.341Z,99836.63
2023-03-29T04:50:23.018Z,99863.81
2023-03-29T04:55:24.583Z,99864.25
2023-03-29T05:00:27.637Z,99868.41
2023-03-29T05:05:29.222Z,99880.63
2023-03-29T05:10:31.004Z,99871.31
2023-03-29T05:15:32.770Z,99910.59
2023-03-29T05:20:34.383Z,99871.31
2023-03-29T05:25:36.119Z,99901.94
2023-03-29T05:30:38.096Z,99871.84
2023-03-29T05:35:39.949Z,99894.09
2023-03-29T05:40:41.641Z,99895.34
2023-03-29T05:45:43.412Z,99911.38
2023-03-29T05:50:49.469Z,99891.84
2023-03-29T05:55:51.790Z,99916.41
2023-03-29T06:00:53.509Z,99909.56
2023-03-29T06:05:58.656Z,99908.91
2023-03-29T06:11:06.790Z,99878.50
2023-03-29T06:16:10.849Z,99896.19
2023-03-29T06:21:12.735Z,99897.84
2023-03-29T06:26:15.770Z,99884.31
2023-03-29T06:31:17.408Z,99851.09
2023-03-29T06:36:20.246Z,99900.75
2023-03-29T06:41:21.963Z,99862.38
2023-03-29T06:46:23.581Z,99874.13
2023-03-29T06:51:25.293Z,99883.06
2023-03-29T06:56:26.908Z,99900.00
2023-03-29T07:01:28.688Z,99900.91
2023-03-29T07:06:31.103Z,99944.84
2023-03-29T07:11:36.395Z,99910.56
2023-03-29T07:16:38.051Z,99905.56
2023-03-29T07:21:40.008Z,99955.97
2023-03-29T07:26:52.292Z,99924.50
2023-03-29T07:32:02.432Z,99902.25
2023-03-29T07:37:04.000Z,99934.34
2023-03-29T07:42:06.642Z,99983.44
2023-03-29T07:47:08.209Z,99913.22
2023-03-29T07:52:09.843Z,99934.72
2023-03-29T07:57:11.652Z,99924.88
2023-03-29T08:02:13.407Z,99916.22
2023-03-29T08:07:18.820Z,99917.44
2023-03-29T08:17:22.479Z,99918.25
2023-03-29T08:22:24.195Z,99871.94
2023-03-29T08:27:26.408Z,99906.19
2023-03-29T08:32:28.017Z,99881.31
2023-03-29T08:37:30.298Z,99894.72
2023-03-29T08:42:53.108Z,99916.72
2023-03-29T08:47:58.692Z,99884.88
2023-03-29T08:53:05.618Z,99891.78
2023-03-29T08:58:14.238Z,99883.34
2023-03-29T09:03:24.167Z,99889.66
2023-03-29T09:08:26.745Z,99881.97
2023-03-29T09:13:49.542Z,99889.47
2023-03-29T09:18:56.812Z,99863.22
2023-03-29T09:24:18.922Z,99895.22
2023-03-29T09:29:35.551Z,99910.63
2023-03-29T09:34:44.292Z,99823.97
2023-03-29T09:39:46.064Z,99837.41
2023-03-29T09:44:57.427Z,99867.19
2023-03-29T09:50:23.090Z,99847.38
2023-03-29T09:55:34.105Z,99803.41
2023-03-29T10:00:36.659Z,99841.47
2023-03-29T10:05:38.506Z,99822.47
2023-03-29T10:10:40.115Z,99792.41
2023-03-29T10:15:41.989Z,99792.16
2023-03-29T10:20:43.577Z,99737.13
2023-03-29T10:25:45.551Z,99763.50
2023-03-29T10:30:54.432Z,99735.22
2023-03-29T10:35:57.735Z,99724.81
2023-03-29T10:41:12.927Z,99733.78
2023-03-29T10:46:33.654Z,99708.31
2023-03-29T10:51:35.512Z,99691.72
2023-03-29T10:56:43.241Z,99715.38
2023-03-29T11:06:47.414Z,99744.78
2023-03-29T11:12:15.734Z,99706.44
2023-03-29T11:17:24.982Z,99711.38
2023-03-29T11:22:47.546Z,99706.63
2023-03-29T11:27:53.540Z,99713.66
2023-03-29T11:33:56.862Z,99667.03
2023-03-29T11:39:12.136Z,99698.75
2023-03-29T11:44:20.293Z,99689.91
2023-03-29T11:49:43.058Z,99682.88
2023-03-29T11:55:03.576Z,99646.97
2023-03-29T12:00:30.498Z,99697.25
2023-03-29T12:05:38.293Z,99679.13
2023-03-29T12:11:24.395Z,99696.63
2023-03-29T12:16:37.961Z,99662.56
2023-03-29T12:21:41.747Z,99655.97
2023-03-29T12:26:57.877Z,99658.06
2023-03-29T12:32:37.234Z,99673.84
2023-03-29T12:38:16.373Z,99650.19
2023-03-29T12:43:39.093Z,99668.13
2023-03-29T12:48:42.472Z,99667.44
2023-03-29T12:53:47.186Z,99603.38
2023-03-29T12:59:26.160Z,99628.19
2023-03-29T13:04:51.297Z,99620.97
2023-03-29T13:10:03.696Z,99581.28
2023-03-29T13:15:23.699Z,99613.13
2023-03-29T13:20:52.239Z,99601.78
2023-03-29T13:25:53.771Z,99591.03
2023-03-29T13:30:59.916Z,99594.72
2023-03-29T13:36:33.070Z,99604.69
2023-03-29T13:41:41.076Z,99581.94
2023-03-29T13:46:43.843Z,99575.50
2023-03-29T13:52:13.268Z,99609.44
2023-03-29T13:57:22.128Z,99634.22
2023-03-29T14:02:32.832Z,99641.84
2023-03-29T14:07:39.150Z,99490.41
2023-03-29T14:12:44.382Z,99546.50
2023-03-29T14:17:47.010Z,99532.72
2023-03-29T14:22:49.725Z,99469.66
2023-03-29T14:27:51.326Z,99445.06
2023-03-29T14:32:53.503Z,99465.63
2023-03-29T14:37:55.312Z,99469.47
2023-03-29T14:42:58.129Z,99402.91
2023-03-29T14:48:00.527Z,99454.69
2023-03-29T14:53:03.204Z,99401.69
2023-03-29T14:58:19.969Z,99431.59
2023-03-29T15:03:27.335Z,99432.56
2023-03-29T15:08:34.572Z,99389.78
2023-03-29T15:13:42.020Z,99391.34
2023-03-29T15:18:46.133Z,99444.16
2023-03-29T15:23:52.613Z,99431.22
2023-03-29T15:29:03.033Z,99441.59
2023-03-29T15:34:09.092Z,99399.06
2023-03-29T15:39:16.285Z,99424.31
2023-03-29T15:44:22.806Z,99407.00
2023-03-29T15:49:25.134Z,99372.50
2023-03-29T15:54:29.100Z,99375.13
2023-03-29T15:59:31.510Z,99353.41
2023-03-29T17:00:00.435Z,99237.69
2023-03-29T18:10:32.402Z,99235.31
2023-03-29T18:15:33.968Z,99187.38
2023-03-29T18:20:35.575Z,99203.78
2023-03-29T18:25:38.693Z,99195.72
2023-03-29T18:30:40.427Z,99195.53
2023-03-29T18:35:48.577Z,99187.78
2023-03-29T18:40:50.582Z,99192.84
2023-03-29T18:45:52.294Z,99188.81
2023-03-29T18:50:56.544Z,99205.69
2023-03-29T18:55:58.082Z,99182.34
2023-03-29T19:01:04.567Z,99214.66
2023-03-29T19:06:07.209Z,99209.88
2023-03-29T19:11:11.355Z,99215.81
2023-03-29T19:16:13.088Z,99167.16
2023-03-29T19:21:14.957Z,99199.84
2023-03-29T19:26:16.644Z,99222.97
2023-03-29T19:31:18.342Z,99189.41
2023-03-29T19:36:20.148Z,99181.97
2023-03-29T19:41:22.125Z,99184.28
2023-03-29T19:46:23.869Z,99214.53
2023-03-29T19:51:27.435Z,99220.72
2023-03-29T19:56:29.010Z,99188.66
2023-03-29T20:01:32.252Z,99159.91
2023-03-29T20:06:34.242Z,99185.69
2023-03-29T20:11:36.076Z,99190.03
2023-03-29T20:16:37.840Z,99210.59
2023-03-29T20:21:39.712Z,99183.16
2023-03-29T20:26:41.364Z,99145.13
2023-03-29T20:31:43.502Z,99157.59
2023-03-29T20:36:46.667Z,99171.84
2023-03-29T20:41:48.763Z,99167.72
2023-03-29T20:47:03.408Z,99181.94
2023-03-29T20:52:07.939Z,99174.78
2023-03-29T20:57:14.168Z,99090.06
2023-03-29T21:02:21.677Z,99133.53
2023-03-29T21:07:23.330Z,99171.81
2023-03-29T21:12:25.601Z,99138.56
2023-03-29T21:17:27.731Z,99170.88
2023-03-29T21:22:29.417Z,99101.34
2023-03-29T21:27:31.129Z,99155.84
2023-03-29T21:32:32.876Z,99126.16
2023-03-29T21:37:34.553Z,99145.72
2023-03-29T21:42:36.514Z,99148.31
2023-03-29T21:47:38.465Z,99112.41
2023-03-29T21:52:40.426Z,99130.47
2023-03-29T21:57:42.134Z,99120.03
2023-03-29T22:02:45.891Z,99075.50
2023-03-29T22:07:50.445Z,99128.31
2023-03-29T22:12:52.613Z,99117.91
2023-03-29T22:17:57.738Z,99099.41
2023-03-29T22:23:00.880Z,99136.56
2023-03-29T22:28:02.458Z,99132.00
2023-03-29T22:33:04.154Z,99118.63
2023-03-29T22:38:05.957Z,99113.72
2023-03-29T22:43:07.592Z,99124.34
2023-03-29T22:48:09.304Z,99090.41
2023-03-29T22:53:11.657Z,99118.97
2023-03-29T22:58:13.304Z,99116.38
2023-03-29T23:03:14.922Z,99116.50
2023-03-29T23:08:16.564Z,99062.94
2023-03-29T23:13:26.414Z,99082.00
2023-03-29T23:18:30.294Z,99091.19
2023-03-29T23:23:32.497Z,99079.72
2023-03-29T23:28:34.688Z,99061.41
2023-03-29T23:33:38.573Z,99082.19
2023-03-29T23:38:42.305Z,99018.63
2023-03-29T23:43:47.138Z,99056.63
2023-03-29T23:48:50.202Z,99074.72
2023-03-29T23:58:53.402Z,99043.56
